sensor_id;sensor_type;location;lat;lon;timestamp;pressure;altitude;pressure_sealevel;temperature;humidity
55685;BME280;41883;49.544;8.646;2023-06-26T00:00:45;100387.28;;;20.95;nan
55685;BME280;41883;49.544;8.646;2023-06-26T00:03:12;100380.94;;;20.90;nan
55685;BME280;41883;49.544;8.646;2023-06-26T00:05:40;100380.16;;;20.83;nan
55685;BME280;41883;49.544;8.646;2023-06-26T00:08:05;100380.22;;;20.76;nan
55685;BME280;41883;49.544;8.646;2023-06-26T00:10:31;100381.28;;;20.75;nan
55685;BME280;41883;49.544;8.646;2023-06-26T00:12:56;100371.00;;;20.72;nan
55685;BME280;41883;49.544;8.646;2023-06-26T00:15:21;100374.28;;;20.74;nan
55685;BME280;41883;49.544;8.646;2023-06-26T00:17:47;100381.44;;;20.80;nan
55685;BME280;41883;49.544;8.646;2023-06-26T00:20:12;100381.75;;;20.90;nan
55685;BME280;41883;49.544;8.646;2023-06-26T00:22:41;100379.81;;;20.97;nan
55685;BME280;41883;49.544;8.646;2023-06-26T00:25:07;100371.25;;;21.07;nan
55685;BME280;41883;49.544;8.646;2023-06-26T00:27:32;100372.66;;;21.10;nan
55685;BME280;41883;49.544;8.646;2023-06-26T00:29:58;100371.81;;;21.09;nan
55685;BME280;41883;49.544;8.646;2023-06-26T00:32:23;100373.25;;;21.12;nan
55685;BME280;41883;49.544;8.646;2023-06-26T00:34:48;100369.13;;;21.09;nan
55685;BME280;41883;49.544;8.646;2023-06-26T00:37:13;100370.41;;;21.07;nan
55685;BME280;41883;49.544;8.646;2023-06-26T00:39:39;100368.84;;;20.99;nan
55685;BME280;41883;49.544;8.646;2023-06-26T00:42:05;100374.13;;;20.87;nan
55685;BME280;41883;49.544;8.646;2023-06-26T00:44:30;100372.16;;;20.76;nan
55685;BME280;41883;49.544;8.646;2023-06-26T00:46:56;100372.47;;;20.68;nan
55685;BME280;41883;49.544;8.646;2023-06-26T00:49:21;100367.41;;;20.60;nan
55685;BME280;41883;49.544;8.646;2023-06-26T00:51:47;100375.25;;;20.54;nan
55685;BME280;41883;49.544;8.646;2023-06-26T00:54:12;100369.72;;;20.49;nan
55685;BME280;41883;49.544;8.646;2023-06-26T00:56:39;100364.19;;;20.44;nan
55685;BME280;41883;49.544;8.646;2023-06-26T00:59:05;100363.84;;;20.41;nan
55685;BME280;41883;49.544;8.646;2023-06-26T01:01:30;100364.69;;;20.34;nan
55685;BME280;41883;49.544;8.646;2023-06-26T01:03:55;100365.16;;;20.31;nan
55685;BME280;41883;49.544;8.646;2023-06-26T01:06:23;100356.69;;;20.28;nan
55685;BME280;41883;49.544;8.646;2023-06-26T01:08:51;100358.19;;;20.24;nan
55685;BME280;41883;49.544;8.646;2023-06-26T01:11:17;100362.13;;;20.21;nan
55685;BME280;41883;49.544;8.646;2023-06-26T01:13:43;100360.13;;;20.17;nan
55685;BME280;41883;49.544;8.646;2023-06-26T01:16:11;100355.41;;;20.12;nan
55685;BME280;41883;49.544;8.646;2023-06-26T01:18:38;100350.69;;;20.07;nan
55685;BME280;41883;49.544;8.646;2023-06-26T01:21:09;100341.09;;;20.18;nan
55685;BME280;41883;49.544;8.646;2023-06-26T01:23:49;100343.22;;;20.34;nan
55685;BME280;41883;49.544;8.646;2023-06-26T01:26:21;100341.88;;;20.44;nan
55685;BME280;41883;49.544;8.646;2023-06-26T01:28:49;100342.66;;;20.51;nan
55685;BME280;41883;49.544;8.646;2023-06-26T01:31:15;100338.28;;;20.56;nan
55685;BME280;41883;49.544;8.646;2023-06-26T01:33:43;100334.78;;;20.56;nan
55685;BME280;41883;49.544;8.646;2023-06-26T01:36:08;100331.44;;;20.54;nan
55685;BME280;41883;49.544;8.646;2023-06-26T01:38:34;100325.72;;;20.50;nan
55685;BME280;41883;49.544;8.646;2023-06-26T01:41:03;100330.28;;;20.50;nan
55685;BME280;41883;49.544;8.646;2023-06-26T01:43:43;100327.81;;;20.48;nan
55685;BME280;41883;49.544;8.646;2023-06-26T01:46:34;100325.16;;;20.42;nan
55685;BME280;41883;49.544;8.646;2023-06-26T01:49:04;100325.69;;;20.32;nan
55685;BME280;41883;49.544;8.646;2023-06-26T01:51:35;100331.91;;;20.26;nan
55685;BME280;41883;49.544;8.646;2023-06-26T01:54:05;100322.53;;;20.17;nan
55685;BME280;41883;49.544;8.646;2023-06-26T01:56:33;100323.41;;;20.10;nan
55685;BME280;41883;49.544;8.646;2023-06-26T01:59:01;100331.13;;;20.00;nan
55685;BME280;41883;49.544;8.646;2023-06-26T02:01:26;100328.31;;;19.88;nan
55685;BME280;41883;49.544;8.646;2023-06-26T02:03:52;100333.31;;;19.78;nan
55685;BME280;41883;49.544;8.646;2023-06-26T02:06:17;100326.38;;;19.70;nan
55685;BME280;41883;49.544;8.646;2023-06-26T02:08:42;100326.38;;;19.64;nan
55685;BME280;41883;49.544;8.646;2023-06-26T02:11:08;100324.34;;;19.59;nan
55685;BME280;41883;49.544;8.646;2023-06-26T02:13:33;100328.88;;;19.59;nan
55685;BME280;41883;49.544;8.646;2023-06-26T02:15:58;100322.72;;;19.58;nan
55685;BME280;41883;49.544;8.646;2023-06-26T02:18:23;100332.81;;;19.56;nan
55685;BME280;41883;49.544;8.646;2023-06-26T02:20:49;100336.19;;;19.45;nan
55685;BME280;41883;49.544;8.646;2023-06-26T02:23:14;100327.19;;;19.33;nan
55685;BME280;41883;49.544;8.646;2023-06-26T02:25:40;100332.59;;;19.26;nan
55685;BME280;41883;49.544;8.646;2023-06-26T02:28:05;100332.38;;;19.21;nan
55685;BME280;41883;49.544;8.646;2023-06-26T02:30:30;100338.63;;;19.15;nan
55685;BME280;41883;49.544;8.646;2023-06-26T02:32:55;100341.13;;;19.09;nan
55685;BME280;41883;49.544;8.646;2023-06-26T02:35:21;100339.25;;;19.10;nan
55685;BME280;41883;49.544;8.646;2023-06-26T02:37:46;100339.06;;;19.12;nan
55685;BME280;41883;49.544;8.646;2023-06-26T02:40:11;100338.81;;;19.13;nan
55685;BME280;41883;49.544;8.646;2023-06-26T02:42:37;100349.72;;;19.18;nan
55685;BME280;41883;49.544;8.646;2023-06-26T02:45:02;100342.94;;;19.16;nan
55685;BME280;41883;49.544;8.646;2023-06-26T02:47:27;100347.28;;;19.10;nan
55685;BME280;41883;49.544;8.646;2023-06-26T02:49:53;100339.72;;;19.00;nan
55685;BME280;41883;49.544;8.646;2023-06-26T02:52:18;100346.53;;;18.89;nan
55685;BME280;41883;49.544;8.646;2023-06-26T02:54:44;100340.16;;;18.84;nan
55685;BME280;41883;49.544;8.646;2023-06-26T02:57:09;100348.41;;;18.82;nan
55685;BME280;41883;49.544;8.646;2023-06-26T02:59:35;100341.00;;;18.78;nan
55685;BME280;41883;49.544;8.646;2023-06-26T03:02:00;100340.38;;;18.69;nan
55685;BME280;41883;49.544;8.646;2023-06-26T03:04:25;100347.00;;;18.60;nan
55685;BME280;41883;49.544;8.646;2023-06-26T03:06:50;100349.69;;;18.53;nan
55685;BME280;41883;49.544;8.646;2023-06-26T03:09:16;100346.81;;;18.48;nan
55685;BME280;41883;49.544;8.646;2023-06-26T03:11:42;100344.31;;;18.40;nan
55685;BME280;41883;49.544;8.646;2023-06-26T03:14:07;100345.78;;;18.36;nan
55685;BME280;41883;49.544;8.646;2023-06-26T03:16:32;100351.34;;;18.34;nan
55685;BME280;41883;49.544;8.646;2023-06-26T03:18:57;100355.44;;;18.30;nan
55685;BME280;41883;49.544;8.646;2023-06-26T03:21:27;100356.31;;;18.31;nan
55685;BME280;41883;49.544;8.646;2023-06-26T03:23:52;100356.91;;;18.26;nan
55685;BME280;41883;49.544;8.646;2023-06-26T03:26:17;100357.31;;;18.23;nan
55685;BME280;41883;49.544;8.646;2023-06-26T03:28:43;100358.34;;;18.22;nan
55685;BME280;41883;49.544;8.646;2023-06-26T03:31:08;100358.78;;;18.19;nan
55685;BME280;41883;49.544;8.646;2023-06-26T03:33:33;100361.84;;;18.16;nan
55685;BME280;41883;49.544;8.646;2023-06-26T03:35:59;100355.88;;;18.14;nan
55685;BME280;41883;49.544;8.646;2023-06-26T03:38:24;100365.56;;;18.15;nan
55685;BME280;41883;49.544;8.646;2023-06-26T03:40:50;100361.44;;;18.19;nan
55685;BME280;41883;49.544;8.646;2023-06-26T03:43:16;100353.19;;;18.20;nan
55685;BME280;41883;49.544;8.646;2023-06-26T03:45:41;100361.03;;;18.29;nan
55685;BME280;41883;49.544;8.646;2023-06-26T03:48:06;100353.00;;;18.35;nan
55685;BME280;41883;49.544;8.646;2023-06-26T03:50:33;100359.38;;;18.34;nan
55685;BME280;41883;49.544;8.646;2023-06-26T03:52:58;100357.50;;;18.28;nan
55685;BME280;41883;49.544;8.646;2023-06-26T03:55:24;100360.00;;;18.30;nan
55685;BME280;41883;49.544;8.646;2023-06-26T03:57:49;100355.69;;;18.35;nan
55685;BME280;41883;49.544;8.646;2023-06-26T04:00:15;100360.19;;;18.41;nan
55685;BME280;41883;49.544;8.646;2023-06-26T04:02:40;100362.66;;;18.50;nan
55685;BME280;41883;49.544;8.646;2023-06-26T04:05:06;100357.72;;;18.60;nan
55685;BME280;41883;49.544;8.646;2023-06-26T04:07:31;100365.94;;;18.65;nan
55685;BME280;41883;49.544;8.646;2023-06-26T04:09:57;100360.97;;;18.68;nan
55685;BME280;41883;49.544;8.646;2023-06-26T04:12:22;100356.41;;;18.76;nan
55685;BME280;41883;49.544;8.646;2023-06-26T04:14:48;100363.47;;;18.77;nan
55685;BME280;41883;49.544;8.646;2023-06-26T04:17:13;100360.97;;;18.82;nan
55685;BME280;41883;49.544;8.646;2023-06-26T04:19:38;100360.56;;;18.85;nan
55685;BME280;41883;49.544;8.646;2023-06-26T04:22:04;100361.16;;;18.87;nan
55685;BME280;41883;49.544;8.646;2023-06-26T04:24:29;100364.25;;;18.91;nan
55685;BME280;41883;49.544;8.646;2023-06-26T04:26:54;100366.31;;;18.95;nan
55685;BME280;41883;49.544;8.646;2023-06-26T04:29:26;100359.91;;;19.03;nan
55685;BME280;41883;49.544;8.646;2023-06-26T04:31:52;100363.81;;;19.07;nan
55685;BME280;41883;49.544;8.646;2023-06-26T04:34:17;100361.69;;;19.16;nan
55685;BME280;41883;49.544;8.646;2023-06-26T04:36:43;100358.38;;;19.20;nan
55685;BME280;41883;49.544;8.646;2023-06-26T04:39:13;100360.22;;;19.26;nan
55685;BME280;41883;49.544;8.646;2023-06-26T04:41:40;100357.91;;;19.37;nan
55685;BME280;41883;49.544;8.646;2023-06-26T04:44:05;100370.47;;;19.43;nan
55685;BME280;41883;49.544;8.646;2023-06-26T04:46:30;100357.44;;;19.46;nan
55685;BME280;41883;49.544;8.646;2023-06-26T04:48:56;100361.78;;;19.47;nan
55685;BME280;41883;49.544;8.646;2023-06-26T04:51:23;100365.66;;;19.51;nan
55685;BME280;41883;49.544;8.646;2023-06-26T04:53:49;100357.41;;;19.53;nan
55685;BME280;41883;49.544;8.646;2023-06-26T04:56:14;100361.06;;;19.59;nan
55685;BME280;41883;49.544;8.646;2023-06-26T04:58:39;100357.53;;;19.65;nan
55685;BME280;41883;49.544;8.646;2023-06-26T05:01:04;100361.25;;;19.70;nan
55685;BME280;41883;49.544;8.646;2023-06-26T05:03:32;100360.59;;;19.75;nan
55685;BME280;41883;49.544;8.646;2023-06-26T05:05:57;100359.13;;;19.79;nan
55685;BME280;41883;49.544;8.646;2023-06-26T05:08:24;100362.81;;;19.85;nan
55685;BME280;41883;49.544;8.646;2023-06-26T05:10:49;100370.38;;;19.94;nan
55685;BME280;41883;49.544;8.646;2023-06-26T05:13:15;100368.25;;;20.03;nan
55685;BME280;41883;49.544;8.646;2023-06-26T05:15:46;100362.13;;;20.21;nan
55685;BME280;41883;49.544;8.646;2023-06-26T05:18:11;100360.75;;;20.37;nan
55685;BME280;41883;49.544;8.646;2023-06-26T05:20:37;100356.91;;;20.51;nan
55685;BME280;41883;49.544;8.646;2023-06-26T05:23:03;100358.28;;;20.61;nan
55685;BME280;41883;49.544;8.646;2023-06-26T05:25:29;100361.41;;;20.76;nan
55685;BME280;41883;49.544;8.646;2023-06-26T05:27:56;100363.38;;;20.87;nan
55685;BME280;41883;49.544;8.646;2023-06-26T05:30:22;100361.59;;;20.99;nan
55685;BME280;41883;49.544;8.646;2023-06-26T05:32:50;100360.63;;;21.12;nan
55685;BME280;41883;49.544;8.646;2023-06-26T05:35:16;100362.47;;;21.30;nan
55685;BME280;41883;49.544;8.646;2023-06-26T05:37:42;100366.66;;;21.45;nan
55685;BME280;41883;49.544;8.646;2023-06-26T05:40:08;100368.09;;;21.59;nan
55685;BME280;41883;49.544;8.646;2023-06-26T05:42:34;100374.72;;;21.75;nan
55685;BME280;41883;49.544;8.646;2023-06-26T05:44:59;100364.94;;;21.92;nan
55685;BME280;41883;49.544;8.646;2023-06-26T05:47:24;100375.75;;;22.16;nan
55685;BME280;41883;49.544;8.646;2023-06-26T05:49:50;100369.03;;;22.37;nan
55685;BME280;41883;49.544;8.646;2023-06-26T05:52:15;100368.66;;;22.68;nan
55685;BME280;41883;49.544;8.646;2023-06-26T05:54:41;100369.09;;;23.13;nan
55685;BME280;41883;49.544;8.646;2023-06-26T05:57:06;100373.34;;;23.66;nan
55685;BME280;41883;49.544;8.646;2023-06-26T05:59:32;100369.34;;;24.14;nan
55685;BME280;41883;49.544;8.646;2023-06-26T06:01:57;100363.78;;;24.54;nan
55685;BME280;41883;49.544;8.646;2023-06-26T06:04:23;100369.25;;;24.98;nan
55685;BME280;41883;49.544;8.646;2023-06-26T06:06:48;100365.47;;;25.43;nan
55685;BME280;41883;49.544;8.646;2023-06-26T06:09:13;100358.19;;;25.76;nan
55685;BME280;41883;49.544;8.646;2023-06-26T06:11:39;100362.59;;;26.10;nan
55685;BME280;41883;49.544;8.646;2023-06-26T06:14:04;100359.59;;;26.43;nan
55685;BME280;41883;49.544;8.646;2023-06-26T06:16:29;100362.22;;;26.71;nan
55685;BME280;41883;49.544;8.646;2023-06-26T06:18:55;100365.34;;;27.05;nan
55685;BME280;41883;49.544;8.646;2023-06-26T06:21:21;100374.75;;;27.40;nan
55685;BME280;41883;49.544;8.646;2023-06-26T06:23:46;100367.72;;;27.59;nan
55685;BME280;41883;49.544;8.646;2023-06-26T06:26:12;100374.81;;;27.70;nan
55685;BME280;41883;49.544;8.646;2023-06-26T06:28:38;100367.53;;;28.02;nan
55685;BME280;41883;49.544;8.646;2023-06-26T06:31:03;100370.50;;;28.26;nan
55685;BME280;41883;49.544;8.646;2023-06-26T06:33:28;100380.84;;;28.49;nan
55685;BME280;41883;49.544;8.646;2023-06-26T06:35:54;100369.09;;;28.64;nan
55685;BME280;41883;49.544;8.646;2023-06-26T06:38:19;100371.25;;;28.83;nan
55685;BME280;41883;49.544;8.646;2023-06-26T06:40:44;100371.94;;;29.19;nan
55685;BME280;41883;49.544;8.646;2023-06-26T06:43:10;100378.59;;;29.47;nan
55685;BME280;41883;49.544;8.646;2023-06-26T06:45:35;100366.56;;;29.53;nan
55685;BME280;41883;49.544;8.646;2023-06-26T06:48:02;100363.47;;;29.65;nan
55685;BME280;41883;49.544;8.646;2023-06-26T06:50:28;100359.44;;;29.57;nan
55685;BME280;41883;49.544;8.646;2023-06-26T06:52:53;100356.69;;;29.62;nan
55685;BME280;41883;49.544;8.646;2023-06-26T06:55:18;100350.38;;;29.77;nan
55685;BME280;41883;49.544;8.646;2023-06-26T06:57:43;100347.41;;;30.03;nan
55685;BME280;41883;49.544;8.646;2023-06-26T07:00:12;100353.97;;;30.02;nan
55685;BME280;41883;49.544;8.646;2023-06-26T07:02:41;100354.97;;;30.11;nan
55685;BME280;41883;49.544;8.646;2023-06-26T07:05:07;100344.78;;;30.22;nan
55685;BME280;41883;49.544;8.646;2023-06-26T07:07:33;100357.44;;;30.42;nan
55685;BME280;41883;49.544;8.646;2023-06-26T07:10:01;100342.41;;;30.44;nan
55685;BME280;41883;49.544;8.646;2023-06-26T07:12:26;100340.09;;;30.57;nan
55685;BME280;41883;49.544;8.646;2023-06-26T07:14:52;100348.97;;;30.67;nan
55685;BME280;41883;49.544;8.646;2023-06-26T07:17:18;100347.28;;;30.72;nan
55685;BME280;41883;49.544;8.646;2023-06-26T07:19:44;100352.22;;;30.94;nan
55685;BME280;41883;49.544;8.646;2023-06-26T07:22:09;100354.25;;;31.07;nan
55685;BME280;41883;49.544;8.646;2023-06-26T07:24:34;100343.63;;;31.05;nan
55685;BME280;41883;49.544;8.646;2023-06-26T07:26:59;100352.75;;;30.96;nan
55685;BME280;41883;49.544;8.646;2023-06-26T07:29:25;100346.03;;;30.88;nan
55685;BME280;41883;49.544;8.646;2023-06-26T07:31:51;100343.94;;;30.80;nan
55685;BME280;41883;49.544;8.646;2023-06-26T07:34:16;100336.78;;;30.84;nan
55685;BME280;41883;49.544;8.646;2023-06-26T07:36:41;100336.13;;;31.16;nan
55685;BME280;41883;49.544;8.646;2023-06-26T07:39:06;100346.59;;;31.09;nan
55685;BME280;41883;49.544;8.646;2023-06-26T07:41:32;100345.41;;;31.34;nan
55685;BME280;41883;49.544;8.646;2023-06-26T07:43:58;100335.53;;;31.38;nan
55685;BME280;41883;49.544;8.646;2023-06-26T07:46:23;100341.31;;;31.56;nan
55685;BME280;41883;49.544;8.646;2023-06-26T07:48:49;100346.75;;;31.74;nan
55685;BME280;41883;49.544;8.646;2023-06-26T07:51:14;100348.19;;;32.05;nan
55685;BME280;41883;49.544;8.646;2023-06-26T07:53:39;100344.09;;;32.21;nan
55685;BME280;41883;49.544;8.646;2023-06-26T07:56:05;100343.28;;;32.34;nan
55685;BME280;41883;49.544;8.646;2023-06-26T07:58:30;100342.66;;;32.24;nan
55685;BME280;41883;49.544;8.646;2023-06-26T08:00:55;100344.91;;;32.22;nan
55685;BME280;41883;49.544;8.646;2023-06-26T08:03:20;100350.91;;;32.37;nan
55685;BME280;41883;49.544;8.646;2023-06-26T08:05:46;100347.28;;;32.56;nan
55685;BME280;41883;49.544;8.646;2023-06-26T08:08:11;100348.72;;;32.67;nan
55685;BME280;41883;49.544;8.646;2023-06-26T08:10:37;100353.06;;;33.10;nan
55685;BME280;41883;49.544;8.646;2023-06-26T08:13:02;100345.59;;;33.38;nan
55685;BME280;41883;49.544;8.646;2023-06-26T08:15:27;100344.13;;;33.54;nan
55685;BME280;41883;49.544;8.646;2023-06-26T08:17:52;100345.88;;;33.73;nan
55685;BME280;41883;49.544;8.646;2023-06-26T08:20:18;100354.34;;;34.08;nan
55685;BME280;41883;49.544;8.646;2023-06-26T08:22:44;100358.22;;;33.84;nan
55685;BME280;41883;49.544;8.646;2023-06-26T08:25:10;100369.66;;;34.00;nan
55685;BME280;41883;49.544;8.646;2023-06-26T08:27:35;100366.22;;;34.48;nan
55685;BME280;41883;49.544;8.646;2023-06-26T08:30:01;100366.03;;;34.84;nan
55685;BME280;41883;49.544;8.646;2023-06-26T08:32:26;100370.06;;;35.36;nan
55685;BME280;41883;49.544;8.646;2023-06-26T08:34:51;100367.63;;;35.95;nan
55685;BME280;41883;49.544;8.646;2023-06-26T08:37:17;100365.28;;;36.32;nan
55685;BME280;41883;49.544;8.646;2023-06-26T08:39:42;100372.22;;;36.38;nan
55685;BME280;41883;49.544;8.646;2023-06-26T08:42:07;100363.59;;;36.48;nan
55685;BME280;41883;49.544;8.646;2023-06-26T08:44:33;100369.19;;;36.22;nan
55685;BME280;41883;49.544;8.646;2023-06-26T08:47:00;100365.31;;;36.23;nan
55685;BME280;41883;49.544;8.646;2023-06-26T08:52:03;100370.84;;;36.14;nan
55685;BME280;41883;49.544;8.646;2023-06-26T08:54:45;100381.19;;;36.09;nan
55685;BME280;41883;49.544;8.646;2023-06-26T08:57:11;100368.22;;;36.27;nan
55685;BME280;41883;49.544;8.646;2023-06-26T08:59:38;100370.41;;;36.42;nan
55685;BME280;41883;49.544;8.646;2023-06-26T09:02:04;100379.72;;;36.29;nan
55685;BME280;41883;49.544;8.646;2023-06-26T09:04:30;100373.50;;;36.88;nan
55685;BME280;41883;49.544;8.646;2023-06-26T09:06:55;100375.06;;;37.18;nan
55685;BME280;41883;49.544;8.646;2023-06-26T09:09:21;100385.88;;;37.53;nan
55685;BME280;41883;49.544;8.646;2023-06-26T09:11:46;100383.06;;;37.95;nan
55685;BME280;41883;49.544;8.646;2023-06-26T09:14:11;100375.25;;;38.43;nan
55685;BME280;41883;49.544;8.646;2023-06-26T09:16:41;100379.22;;;38.91;nan
55685;BME280;41883;49.544;8.646;2023-06-26T09:19:11;100385.88;;;38.90;nan
55685;BME280;41883;49.544;8.646;2023-06-26T09:21:38;100380.31;;;38.41;nan
55685;BME280;41883;49.544;8.646;2023-06-26T09:24:06;100381.84;;;38.63;nan
55685;BME280;41883;49.544;8.646;2023-06-26T09:26:33;100379.00;;;39.49;nan
55685;BME280;41883;49.544;8.646;2023-06-26T09:28:58;100370.22;;;38.82;nan
55685;BME280;41883;49.544;8.646;2023-06-26T09:31:24;100384.28;;;38.52;nan
55685;BME280;41883;49.544;8.646;2023-06-26T09:33:57;100376.94;;;38.93;nan
55685;BME280;41883;49.544;8.646;2023-06-26T09:36:23;100376.41;;;39.16;nan
55685;BME280;41883;49.544;8.646;2023-06-26T09:38:50;100375.03;;;39.62;nan
55685;BME280;41883;49.544;8.646;2023-06-26T09:41:16;100376.97;;;40.02;nan
55685;BME280;41883;49.544;8.646;2023-06-26T09:43:49;100377.47;;;40.36;nan
55685;BME280;41883;49.544;8.646;2023-06-26T09:46:16;100381.84;;;41.04;nan
55685;BME280;41883;49.544;8.646;2023-06-26T09:48:42;100379.94;;;41.44;nan
55685;BME280;41883;49.544;8.646;2023-06-26T09:51:08;100381.72;;;42.14;nan
55685;BME280;41883;49.544;8.646;2023-06-26T09:53:35;100373.91;;;42.42;nan
55685;BME280;41883;49.544;8.646;2023-06-26T09:56:07;100376.41;;;42.74;nan
55685;BME280;41883;49.544;8.646;2023-06-26T09:58:40;100383.81;;;42.67;nan
55685;BME280;41883;49.544;8.646;2023-06-26T10:01:07;100389.78;;;42.92;nan
55685;BME280;41883;49.544;8.646;2023-06-26T10:03:34;100390.34;;;43.31;nan
55685;BME280;41883;49.544;8.646;2023-06-26T10:06:00;100380.56;;;42.38;nan
55685;BME280;41883;49.544;8.646;2023-06-26T10:08:26;100374.09;;;42.53;nan
55685;BME280;41883;49.544;8.646;2023-06-26T10:10:53;100376.72;;;41.80;nan
55685;BME280;41883;49.544;8.646;2023-06-26T10:13:22;100369.16;;;41.03;nan
55685;BME280;41883;49.544;8.646;2023-06-26T10:15:51;100374.94;;;40.63;nan
55685;BME280;41883;49.544;8.646;2023-06-26T10:18:17;100369.38;;;40.15;nan
55685;BME280;41883;49.544;8.646;2023-06-26T10:20:47;100374.63;;;40.04;nan
55685;BME280;41883;49.544;8.646;2023-06-26T10:23:13;100364.84;;;39.26;nan
55685;BME280;41883;49.544;8.646;2023-06-26T10:25:41;100370.25;;;38.57;nan
55685;BME280;41883;49.544;8.646;2023-06-26T10:28:08;100365.09;;;38.22;nan
55685;BME280;41883;49.544;8.646;2023-06-26T10:30:35;100362.91;;;36.04;nan
55685;BME280;41883;49.544;8.646;2023-06-26T10:33:02;100371.06;;;36.48;nan
55685;BME280;41883;49.544;8.646;2023-06-26T10:35:30;100369.28;;;37.62;nan
55685;BME280;41883;49.544;8.646;2023-06-26T10:38:01;100369.00;;;37.55;nan
55685;BME280;41883;49.544;8.646;2023-06-26T10:40:28;100372.44;;;38.18;nan
55685;BME280;41883;49.544;8.646;2023-06-26T10:43:07;100377.94;;;38.76;nan
55685;BME280;41883;49.544;8.646;2023-06-26T10:45:34;100384.75;;;37.88;nan
55685;BME280;41883;49.544;8.646;2023-06-26T10:48:00;100384.84;;;38.00;nan
55685;BME280;41883;49.544;8.646;2023-06-26T10:50:30;100382.53;;;39.09;nan
55685;BME280;41883;49.544;8.646;2023-06-26T10:53:16;100388.78;;;38.94;nan
55685;BME280;41883;49.544;8.646;2023-06-26T10:56:03;100393.88;;;37.46;nan
55685;BME280;41883;49.544;8.646;2023-06-26T11:01:25;100386.44;;;36.58;nan
55685;BME280;41883;49.544;8.646;2023-06-26T11:04:06;100396.25;;;35.94;nan
55685;BME280;41883;49.544;8.646;2023-06-26T11:06:33;100395.16;;;36.51;nan
55685;BME280;41883;49.544;8.646;2023-06-26T11:09:08;100387.19;;;35.85;nan
55685;BME280;41883;49.544;8.646;2023-06-26T11:14:19;100387.00;;;36.72;nan
55685;BME280;41883;49.544;8.646;2023-06-26T11:16:44;100386.34;;;36.75;nan
55685;BME280;41883;49.544;8.646;2023-06-26T11:19:10;100384.66;;;37.63;nan
55685;BME280;41883;49.544;8.646;2023-06-26T11:21:37;100393.28;;;37.95;nan
55685;BME280;41883;49.544;8.646;2023-06-26T11:24:07;100395.09;;;37.78;nan
55685;BME280;41883;49.544;8.646;2023-06-26T11:26:43;100390.03;;;39.08;nan
55685;BME280;41883;49.544;8.646;2023-06-26T11:29:09;100390.31;;;40.60;nan
55685;BME280;41883;49.544;8.646;2023-06-26T11:31:36;100389.09;;;42.03;nan
55685;BME280;41883;49.544;8.646;2023-06-26T11:34:06;100399.00;;;42.96;nan
55685;BME280;41883;49.544;8.646;2023-06-26T11:36:34;100391.97;;;43.66;nan
55685;BME280;41883;49.544;8.646;2023-06-26T11:39:03;100383.72;;;44.10;nan
55685;BME280;41883;49.544;8.646;2023-06-26T11:41:32;100389.94;;;44.93;nan
55685;BME280;41883;49.544;8.646;2023-06-26T11:44:06;100379.97;;;45.72;nan
55685;BME280;41883;49.544;8.646;2023-06-26T11:46:33;100381.94;;;45.72;nan
55685;BME280;41883;49.544;8.646;2023-06-26T11:48:59;100390.44;;;44.50;nan
55685;BME280;41883;49.544;8.646;2023-06-26T11:51:27;100386.94;;;44.64;nan
55685;BME280;41883;49.544;8.646;2023-06-26T11:53:53;100391.25;;;46.23;nan
55685;BME280;41883;49.544;8.646;2023-06-26T11:56:18;100387.53;;;47.19;nan
55685;BME280;41883;49.544;8.646;2023-06-26T11:59:03;100396.66;;;47.34;nan
55685;BME280;41883;49.544;8.646;2023-06-26T12:01:33;100389.56;;;47.00;nan
55685;BME280;41883;49.544;8.646;2023-06-26T12:04:01;100374.19;;;47.59;nan
55685;BME280;41883;49.544;8.646;2023-06-26T12:06:29;100375.22;;;47.83;nan
55685;BME280;41883;49.544;8.646;2023-06-26T12:08:58;100385.72;;;47.68;nan
55685;BME280;41883;49.544;8.646;2023-06-26T12:16:15;100377.31;;;45.13;nan
55685;BME280;41883;49.544;8.646;2023-06-26T12:18:40;100375.00;;;45.23;nan
55685;BME280;41883;49.544;8.646;2023-06-26T12:21:06;100373.31;;;44.52;nan
55685;BME280;41883;49.544;8.646;2023-06-26T12:23:40;100375.72;;;44.05;nan
55685;BME280;41883;49.544;8.646;2023-06-26T12:26:21;100364.41;;;43.57;nan
55685;BME280;41883;49.544;8.646;2023-06-26T12:28:47;100384.63;;;42.67;nan
55685;BME280;41883;49.544;8.646;2023-06-26T12:31:15;100380.94;;;42.36;nan
55685;BME280;41883;49.544;8.646;2023-06-26T12:33:45;100385.47;;;42.02;nan
55685;BME280;41883;49.544;8.646;2023-06-26T12:36:11;100379.63;;;41.65;nan
55685;BME280;41883;49.544;8.646;2023-06-26T12:38:37;100376.13;;;40.97;nan
55685;BME280;41883;49.544;8.646;2023-06-26T12:41:05;100370.84;;;40.72;nan
55685;BME280;41883;49.544;8.646;2023-06-26T12:43:30;100373.16;;;40.70;nan
55685;BME280;41883;49.544;8.646;2023-06-26T12:45:56;100373.25;;;40.26;nan
55685;BME280;41883;49.544;8.646;2023-06-26T12:48:22;100380.22;;;40.36;nan
55685;BME280;41883;49.544;8.646;2023-06-26T12:50:47;100381.25;;;39.59;nan
55685;BME280;41883;49.544;8.646;2023-06-26T12:53:13;100381.19;;;39.56;nan
55685;BME280;41883;49.544;8.646;2023-06-26T12:55:39;100380.53;;;39.34;nan
55685;BME280;41883;49.544;8.646;2023-06-26T12:58:04;100383.22;;;39.06;nan
55685;BME280;41883;49.544;8.646;2023-06-26T13:00:29;100384.41;;;38.93;nan
55685;BME280;41883;49.544;8.646;2023-06-26T13:02:55;100374.78;;;38.16;nan
55685;BME280;41883;49.544;8.646;2023-06-26T13:05:21;100381.53;;;38.52;nan
55685;BME280;41883;49.544;8.646;2023-06-26T13:07:46;100372.75;;;38.62;nan
55685;BME280;41883;49.544;8.646;2023-06-26T13:10:12;100382.66;;;38.63;nan
55685;BME280;41883;49.544;8.646;2023-06-26T13:12:37;100383.06;;;38.16;nan
55685;BME280;41883;49.544;8.646;2023-06-26T13:15:02;100372.16;;;37.99;nan
55685;BME280;41883;49.544;8.646;2023-06-26T13:17:28;100380.91;;;37.68;nan
55685;BME280;41883;49.544;8.646;2023-06-26T13:19:53;100375.50;;;37.29;nan